createdAt,value
2023-02-18T00:00:00.675Z,6.60
2023-02-18T00:03:25.994Z,6.33
2023-02-18T00:06:49.553Z,5.40
2023-02-18T00:10:15.904Z,6.20
2023-02-18T00:13:39.662Z,6.90
2023-02-18T00:17:03.408Z,7.13
2023-02-18T00:20:28.665Z,6.20
2023-02-18T00:23:52.619Z,6.30
2023-02-18T00:27:16.524Z,7.87
2023-02-18T00:30:41.667Z,6.40
2023-02-18T00:34:06.873Z,7.50
2023-02-18T00:37:34.455Z,7.97
2023-02-18T00:40:59.065Z,7.90
2023-02-18T00:44:22.674Z,8.47
2023-02-18T00:47:46.514Z,9.87
2023-02-18T00:51:10.905Z,9.63
2023-02-18T00:54:35.845Z,9.17
2023-02-18T00:57:59.415Z,9.20
2023-02-18T01:01:22.957Z,11.07
2023-02-18T01:04:47.099Z,10.17
2023-02-18T01:08:11.570Z,11.90
2023-02-18T01:11:36.724Z,11.70
2023-02-18T01:15:00.315Z,11.47
2023-02-18T01:18:25.711Z,12.07
2023-02-18T01:21:49.252Z,13.50
2023-02-18T01:25:13.342Z,14.17
2023-02-18T01:28:38.786Z,14.80
2023-02-18T01:32:03.185Z,14.33
2023-02-18T01:35:26.833Z,15.77
2023-02-18T01:38:53.232Z,15.50
2023-02-18T01:42:21.108Z,15.43
2023-02-18T01:46:03.531Z,16.80
2023-02-18T01:49:29.878Z,19.13
2023-02-18T01:52:53.449Z,17.03
2023-02-18T01:56:23.669Z,18.90
2023-02-18T01:59:52.098Z,17.80
2023-02-18T02:03:18.167Z,16.67
2023-02-18T02:06:41.713Z,20.30
2023-02-18T02:10:06.138Z,19.43
2023-02-18T02:13:45.232Z,19.60
2023-02-18T02:17:13.392Z,18.17
2023-02-18T02:21:05.011Z,19.43
2023-02-18T02:25:05.583Z,18.90
2023-02-18T02:29:00.707Z,21.03
2023-02-18T02:33:13.390Z,20.37
2023-02-18T02:36:47.743Z,18.53
2023-02-18T02:40:21.709Z,20.90
2023-02-18T02:43:57.452Z,20.37
2023-02-18T02:47:27.075Z,23.70
2023-02-18T02:50:55.718Z,19.97
2023-02-18T02:54:23.233Z,20.40
2023-02-18T02:57:52.910Z,22.07
2023-02-18T03:01:30.523Z,21.57
2023-02-18T03:05:05.903Z,21.43
2023-02-18T03:08:40.361Z,24.00
2023-02-18T03:12:12.947Z,22.57
2023-02-18T03:15:44.700Z,24.00
2023-02-18T03:19:13.267Z,23.60
2023-02-18T03:22:41.246Z,22.37
2023-02-18T03:26:06.708Z,22.27
2023-02-18T03:29:32.268Z,22.20
2023-02-18T03:32:59.152Z,22.43
2023-02-18T03:36:25.598Z,22.60
2023-02-18T03:39:53.555Z,21.83
2023-02-18T03:43:17.876Z,22.87
2023-02-18T03:46:45.306Z,21.17
2023-02-18T03:50:09.982Z,19.80
2023-02-18T03:53:33.636Z,19.43
2023-02-18T03:56:57.315Z,19.53
2023-02-18T04:00:21.853Z,15.70
2023-02-18T04:03:46.788Z,16.90
2023-02-18T04:07:10.502Z,16.17
2023-02-18T04:10:34.076Z,13.50
2023-02-18T04:13:57.655Z,13.53
2023-02-18T04:17:21.593Z,13.87
2023-02-18T04:20:47.266Z,13.07
2023-02-18T04:24:11.609Z,12.13
2023-02-18T04:27:35.577Z,11.17
2023-02-18T04:30:59.269Z,13.80
2023-02-18T04:34:23.629Z,13.30
2023-02-18T04:37:48.918Z,11.80
2023-02-18T04:41:13.409Z,14.07
2023-02-18T04:44:37.998Z,15.07
2023-02-18T04:48:01.539Z,17.00
2023-02-18T04:51:25.630Z,18.37
2023-02-18T04:54:53.180Z,18.50
2023-02-18T04:58:17.588Z,18.77
2023-02-18T05:01:41.319Z,21.53
2023-02-18T05:05:05.974Z,22.97
2023-02-18T05:08:31.935Z,21.90
2023-02-18T05:11:57.036Z,21.00
2023-02-18T05:15:22.193Z,21.47
2023-02-18T05:18:46.055Z,21.63
2023-02-18T05:22:10.756Z,23.90
2023-02-18T05:25:34.651Z,21.57
2023-02-18T05:28:59.582Z,21.27
2023-02-18T05:32:23.521Z,20.13
2023-02-18T05:35:47.139Z,22.60
2023-02-18T05:39:10.711Z,17.30
2023-02-18T05:42:34.682Z,16.10
2023-02-18T05:46:00.061Z,19.40
2023-02-18T05:49:23.656Z,19.47
2023-02-18T05:52:47.206Z,21.30
2023-02-18T05:56:11.803Z,22.00
2023-02-18T05:59:35.710Z,22.30
2023-02-18T06:03:00.798Z,21.00
2023-02-18T06:06:26.594Z,20.80
2023-02-18T06:09:50.650Z,18.67
2023-02-18T06:13:15.076Z,19.73
2023-02-18T06:16:38.692Z,18.03
2023-02-18T06:20:03.908Z,18.17
2023-02-18T06:23:27.887Z,18.47
2023-02-18T06:26:51.731Z,19.10
2023-02-18T06:30:15.977Z,15.37
2023-02-18T06:33:39.712Z,13.57
2023-02-18T06:37:04.749Z,12.30
2023-02-18T06:40:28.838Z,13.03
2023-02-18T06:43:54.076Z,10.00
2023-02-18T06:47:17.680Z,11.17
2023-02-18T06:50:43.122Z,11.40
2023-02-18T06:54:08.144Z,9.67
2023-02-18T06:57:32.030Z,9.13
2023-02-18T07:00:55.621Z,9.03
2023-02-18T07:04:19.821Z,7.10
2023-02-18T07:07:43.535Z,8.00
2023-02-18T07:11:09.542Z,6.73
2023-02-18T07:14:33.231Z,5.60
2023-02-18T07:17:57.792Z,6.23
2023-02-18T07:21:21.303Z,7.60
2023-02-18T07:24:44.895Z,6.77
2023-02-18T07:28:09.724Z,7.27
2023-02-18T07:31:33.367Z,6.27
2023-02-18T07:34:56.902Z,7.70
2023-02-18T07:38:20.450Z,8.00
2023-02-18T07:41:43.973Z,6.93
2023-02-18T07:45:14.378Z,6.50
2023-02-18T07:48:38.071Z,8.73
2023-02-18T07:52:02.608Z,6.27
2023-02-18T07:55:46.946Z,6.30
2023-02-18T07:59:10.521Z,6.53
2023-02-18T08:02:36.120Z,6.13
2023-02-18T08:06:00.239Z,5.87
2023-02-18T08:09:24.264Z,4.97
2023-02-18T08:12:48.817Z,6.50
2023-02-18T08:16:13.130Z,6.33
2023-02-18T08:19:40.423Z,5.80
2023-02-18T08:23:06.435Z,7.00
2023-02-18T08:26:29.993Z,7.80
2023-02-18T08:29:54.178Z,7.60
2023-02-18T08:33:18.733Z,6.17
2023-02-18T08:36:44.228Z,8.10
2023-02-18T08:40:08.911Z,6.80
2023-02-18T08:43:35.266Z,4.70
2023-02-18T08:46:59.241Z,5.90
2023-02-18T08:50:28.465Z,5.17
2023-02-18T08:53:54.240Z,4.60
2023-02-18T08:57:17.836Z,5.67
2023-02-18T09:00:42.516Z,5.17
2023-02-18T09:04:09.157Z,4.63
2023-02-18T09:07:36.354Z,4.60
2023-02-18T09:11:04.395Z,5.00
2023-02-18T09:14:28.067Z,5.10
2023-02-18T09:17:51.863Z,5.17
2023-02-18T09:21:17.180Z,4.63
2023-02-18T09:24:42.098Z,4.90
2023-02-18T09:28:07.001Z,4.70
2023-02-18T09:31:31.077Z,6.13
2023-02-18T09:34:54.591Z,5.10
2023-02-18T09:38:19.293Z,4.70
2023-02-18T09:41:45.482Z,5.70
2023-02-18T09:45:16.900Z,4.43
2023-02-18T09:48:50.162Z,5.80
2023-02-18T09:52:17.137Z,4.97
2023-02-18T09:55:41.873Z,5.20
2023-02-18T09:59:12.352Z,6.27
2023-02-18T10:02:39.199Z,5.60
2023-02-18T10:06:07.043Z,7.90
2023-02-18T10:09:34.319Z,8.43
2023-02-18T10:12:59.115Z,9.13
2023-02-18T10:16:24.929Z,9.60
2023-02-18T10:19:52.489Z,9.30
2023-02-18T10:23:17.180Z,8.53
2023-02-18T10:26:40.765Z,7.77
2023-02-18T10:30:22.133Z,8.47
2023-02-18T10:33:51.495Z,6.90
2023-02-18T10:37:40.521Z,5.90
2023-02-18T10:41:12.328Z,4.60
2023-02-18T10:44:45.306Z,5.53
2023-02-18T10:48:23.588Z,3.60
2023-02-18T10:51:52.424Z,4.97
2023-02-18T10:55:19.049Z,4.57
2023-02-18T10:58:47.183Z,4.90
2023-02-18T11:02:18.578Z,4.83
2023-02-18T11:05:42.689Z,5.80
2023-02-18T11:09:07.453Z,4.23
2023-02-18T11:12:41.048Z,5.70
2023-02-18T11:16:09.335Z,6.23
2023-02-18T11:19:35.125Z,5.63
2023-02-18T11:23:13.692Z,6.40
2023-02-18T11:26:40.271Z,6.17
2023-02-18T11:30:08.310Z,7.00
2023-02-18T11:33:36.335Z,6.80
2023-02-18T11:37:12.584Z,4.60
2023-02-18T11:40:37.827Z,5.40
2023-02-18T11:44:04.031Z,6.20
2023-02-18T11:47:34.246Z,5.43
2023-02-18T11:51:04.403Z,4.50
2023-02-18T11:54:31.544Z,4.30
2023-02-18T11:57:58.011Z,4.90
2023-02-18T12:01:35.318Z,5.27
2023-02-18T12:05:04.865Z,5.40
2023-02-18T12:08:32.249Z,5.40
2023-02-18T12:12:00.252Z,4.00
2023-02-18T12:15:30.825Z,4.57
2023-02-18T12:19:16.967Z,4.70
2023-02-18T12:22:46.205Z,4.63
2023-02-18T12:26:22.761Z,4.20
2023-02-18T12:30:23.083Z,4.47
2023-02-18T12:34:02.556Z,3.67
2023-02-18T12:38:02.542Z,5.40
2023-02-18T12:41:48.624Z,4.50
2023-02-18T12:45:46.576Z,4.20
2023-02-18T12:49:39.337Z,6.10
2023-02-18T12:53:18.360Z,4.70
2023-02-18T12:57:05.882Z,2.93
2023-02-18T13:01:00.186Z,3.90
2023-02-18T13:04:36.785Z,4.60
2023-02-18T13:08:22.872Z,5.33
2023-02-18T13:11:56.068Z,6.27
2023-02-18T13:15:24.365Z,4.67
2023-02-18T13:19:01.760Z,5.13
2023-02-18T13:22:29.794Z,5.23
2023-02-18T13:26:00.833Z,5.07
2023-02-18T13:29:35.386Z,4.83
2023-02-18T13:33:14.833Z,5.17
2023-02-18T13:36:51.781Z,5.20
2023-02-18T13:40:19.339Z,4.73
2023-02-18T13:43:46.087Z,4.60
2023-02-18T13:47:12.099Z,5.77
2023-02-18T13:50:43.618Z,6.03
2023-02-18T13:54:20.226Z,5.30
2023-02-18T13:57:43.819Z,5.17
2023-02-18T14:01:20.487Z,6.00
2023-02-18T14:04:54.721Z,5.63
2023-02-18T14:08:37.331Z,6.63
2023-02-18T14:12:52.015Z,6.90
2023-02-18T14:16:16.224Z,7.10
2023-02-18T14:19:40.010Z,7.07
2023-02-18T14:23:13.402Z,5.60
2023-02-18T14:26:41.065Z,6.47
2023-02-18T14:30:07.853Z,5.77
2023-02-18T14:33:33.005Z,6.93
2023-02-18T14:37:14.708Z,4.97
2023-02-18T14:41:05.027Z,6.20
2023-02-18T14:44:48.672Z,7.33
2023-02-18T14:48:31.046Z,6.10
2023-02-18T14:51:58.765Z,5.60
2023-02-18T14:55:27.414Z,5.90
2023-02-18T14:58:57.712Z,6.13
2023-02-18T15:02:23.810Z,6.17
2023-02-18T15:05:48.381Z,6.30
2023-02-18T15:09:17.095Z,6.13
2023-02-18T15:12:40.828Z,5.47
2023-02-18T15:16:08.713Z,5.10
2023-02-18T15:19:40.475Z,5.10
2023-02-18T15:23:04.188Z,6.30
2023-02-18T15:26:27.811Z,5.30
2023-02-18T15:29:52.522Z,5.03
2023-02-18T15:33:20.064Z,5.77
2023-02-18T15:36:43.631Z,5.43
2023-02-18T15:40:15.201Z,5.23
2023-02-18T15:43:38.838Z,5.90
2023-02-18T15:47:03.888Z,5.23
2023-02-18T15:50:32.862Z,5.90
2023-02-18T15:53:59.382Z,7.50
2023-02-18T15:57:27.614Z,4.93
2023-02-18T16:00:53.660Z,5.90
2023-02-18T16:04:17.487Z,6.33
2023-02-18T16:07:52.746Z,7.17
2023-02-18T16:11:16.369Z,6.37
2023-02-18T16:14:46.110Z,6.17
2023-02-18T16:18:23.115Z,5.70
2023-02-18T16:21:46.821Z,5.70
2023-02-18T16:25:17.689Z,4.80
2023-02-18T16:28:44.621Z,5.53
2023-02-18T16:32:08.405Z,4.80
2023-02-18T16:35:48.453Z,5.90
2023-02-18T16:39:13.535Z,4.30
2023-02-18T16:42:42.177Z,5.97
2023-02-18T16:46:14.119Z,5.57
2023-02-18T16:49:50.089Z,6.10
2023-02-18T16:53:14.712Z,6.43
2023-02-18T16:56:39.939Z,5.03
2023-02-18T17:00:05.304Z,5.40
2023-02-18T17:03:28.972Z,6.70
2023-02-18T17:06:52.554Z,7.07
2023-02-18T17:10:17.142Z,7.40
2023-02-18T17:13:41.146Z,12.77
2023-02-18T17:17:13.746Z,6.87
2023-02-18T17:20:37.276Z,7.23
2023-02-18T17:24:02.013Z,8.03
2023-02-18T17:27:25.672Z,7.20
2023-02-18T17:30:54.255Z,6.93
2023-02-18T17:34:25.518Z,7.70
2023-02-18T17:37:49.616Z,9.30
2023-02-18T17:41:14.182Z,7.60
2023-02-18T17:44:38.612Z,7.50
2023-02-18T17:48:03.133Z,6.77
2023-02-18T17:51:30.097Z,6.87
2023-02-18T17:54:53.635Z,6.93
2023-02-18T17:58:17.965Z,7.50
2023-02-18T18:01:42.307Z,7.07
2023-02-18T18:05:06.290Z,7.23
2023-02-18T18:08:31.449Z,8.07
2023-02-18T18:11:55.011Z,7.00
2023-02-18T18:15:26.479Z,5.80
2023-02-18T18:18:50.151Z,6.23
2023-02-18T18:22:13.746Z,8.10
2023-02-18T18:25:41.104Z,6.80
2023-02-18T18:29:05.004Z,6.70
2023-02-18T18:32:28.632Z,6.43
2023-02-18T18:35:54.032Z,10.43
2023-02-18T18:39:17.650Z,16.20
2023-02-18T18:42:42.555Z,6.40
2023-02-18T18:46:06.256Z,6.33
2023-02-18T18:49:29.812Z,7.80
2023-02-18T18:52:54.573Z,8.03
2023-02-18T18:56:18.154Z,6.33
2023-02-18T18:59:43.525Z,7.47
2023-02-18T19:03:07.837Z,6.67
2023-02-18T19:06:31.312Z,6.87
2023-02-18T19:09:54.831Z,7.23
2023-02-18T19:13:20.040Z,9.20
2023-02-18T19:16:45.375Z,16.10
2023-02-18T19:20:13.597Z,8.77
2023-02-18T19:23:37.293Z,8.20
2023-02-18T19:27:00.903Z,9.10
2023-02-18T19:30:26.580Z,8.17
2023-02-18T19:33:51.535Z,8.30
2023-02-18T19:37:15.059Z,8.00
2023-02-18T19:40:39.398Z,8.73
2023-02-18T19:44:03.100Z,9.80
2023-02-18T19:47:28.055Z,8.40
2023-02-18T19:50:54.592Z,9.33
2023-02-18T19:54:18.125Z,8.23
2023-02-18T19:57:41.717Z,9.80
2023-02-18T20:01:05.682Z,10.47
2023-02-18T20:04:29.756Z,10.70
2023-02-18T20:07:54.699Z,10.23
2023-02-18T20:11:18.858Z,9.50
2023-02-18T20:14:43.586Z,11.60
2023-02-18T20:18:07.866Z,8.97
2023-02-18T20:21:31.729Z,9.63
2023-02-18T20:24:57.033Z,11.13
2023-02-18T20:28:20.634Z,8.20
2023-02-18T20:31:44.306Z,8.37
2023-02-18T20:35:09.103Z,8.57
2023-02-18T20:38:32.811Z,9.13
2023-02-18T20:41:59.306Z,8.40
2023-02-18T20:45:26.557Z,9.60
2023-02-18T20:48:50.141Z,9.30
2023-02-18T20:52:14.447Z,8.87
2023-02-18T20:55:38.166Z,8.23
2023-02-18T20:59:03.335Z,7.60
2023-02-18T21:02:29.053Z,9.40
2023-02-18T21:05:56.336Z,9.70
2023-02-18T21:09:21.573Z,9.40
2023-02-18T21:12:45.378Z,9.87
2023-02-18T21:16:11.335Z,10.73
2023-02-18T21:19:35.375Z,10.90
2023-02-18T21:22:58.920Z,12.23
2023-02-18T21:26:25.538Z,11.60
2023-02-18T21:29:49.066Z,12.40
2023-02-18T21:33:14.554Z,12.97
2023-02-18T21:36:39.320Z,13.00
2023-02-18T21:40:03.168Z,13.67
2023-02-18T21:43:27.812Z,13.03
2023-02-18T21:46:51.427Z,14.60
2023-02-18T21:50:16.962Z,13.50
2023-02-18T21:53:41.444Z,13.00
2023-02-18T21:57:07.862Z,14.73
2023-02-18T22:00:31.705Z,13.37
2023-02-18T22:03:56.304Z,14.50
2023-02-18T22:07:23.573Z,14.33
2023-02-18T22:10:47.146Z,14.17
2023-02-18T22:14:11.299Z,13.50
2023-02-18T22:17:34.997Z,14.07
2023-02-18T22:20:58.905Z,14.20
2023-02-18T22:24:24.880Z,13.07
2023-02-18T22:27:49.155Z,12.87
2023-02-18T22:31:13.888Z,13.23
2023-02-18T22:34:38.456Z,12.83
2023-02-18T22:38:03.087Z,12.93
2023-02-18T22:41:31.643Z,12.63
2023-02-18T22:44:57.055Z,13.60
2023-02-18T22:48:21.469Z,12.00
2023-02-18T22:51:46.821Z,11.80
2023-02-18T22:55:11.085Z,10.60
2023-02-18T22:58:37.586Z,10.50
2023-02-18T23:02:02.331Z,10.40
2023-02-18T23:05:26.573Z,10.07
2023-02-18T23:08:50.917Z,12.47
2023-02-18T23:12:14.467Z,12.60
2023-02-18T23:15:39.986Z,11.80
2023-02-18T23:19:03.524Z,11.80
2023-02-18T23:22:30.169Z,11.80
2023-02-18T23:25:53.691Z,10.87
2023-02-18T23:29:17.929Z,11.90
2023-02-18T23:32:43.261Z,12.97
2023-02-18T23:36:10.412Z,13.23
2023-02-18T23:39:35.077Z,11.83
2023-02-18T23:43:02.609Z,12.63
2023-02-18T23:46:30.865Z,10.50
2023-02-18T23:49:56.889Z,13.10
2023-02-18T23:53:20.406Z,11.00
2023-02-18T23:56:45.710Z,11.53
